Welcome to the Virtual
Houston Air Route Traffic Control Center

Login

 
 

Forgot your password?

Controllers Online
Callsign Controller
Loading...
Updated --
Airport Information
ICAO Rules Wind Baro
Loading...
Updated --
Full Weather Information
Top Controllers - Oct '17
Controller Online
En-Route / Oceanic
1 Brandon Barrett (I1) 14:17
2 Reuben Prevost (I3) 05:12
3 Matthew Kosmoski (C1) 03:27
4 Cole Connelly (I1) 03:19
5 Brighton McMinn (SUP) 03:15
Terminal RADAR
1 Carson Page (S3) 13:39
2 Joshua Hooker (S3) 04:20
3 Jason Diket (C1) 04:12
4 Sebastian Knoop-Troullier (S3) 03:23
5 Reuben Prevost (I3) 03:09
C/G/L Control
1 Ryan Barnes (S2) 93:09
2 Odin Morris (S1) 19:09
3 Brandon Wening (S2) 16:25
4 Chip Belcher (S1) 11:48
5 Ethan Hawes (I1) 08:52
Full Controller Statistics

VATSIM
VATUSA

Weather


KAUSKAUS 171753Z 00000KT 10SM CLR 21/07 A3027 RMK AO2 SLP248 T02060072 10211 20061 58015
KBTRKBTR 171753Z 04006KT 10SM CLR 22/11 A3020 RMK AO2 SLP225 T02170106 10222 20089 58011
KCRPKCRP 171751Z 00000KT 10SM FEW025 24/08 A3023 RMK AO2 SLP235 T02440083 10250 20117 58014
KGPTKGPT 171753Z 00000KT 10SM CLR 23/13 A3017 RMK AO2 SLP214 T02280133 10233 20117 58011
KHOUKHOU 171753Z 05005KT 10SM CLR 23/07 A3022 RMK AO2 SLP239 T02330072 10239 20139 58018
KIAHKIAH 171753Z 04009KT 10SM CLR 23/08 A3024 RMK AO2 SLP238 T02280078 10233 20106 58019
KLCHKLCH 171753Z 01008KT 10SM CLR 23/07 A3021 RMK AO2 SLP236 T02280067 10233 20111 58014
KMOBKMOB 171756Z 03007KT 10SM CLR 23/13 A3019 RMK AO2 SLP219 T02330133 10233 20117 58009 $
KMSYKMSY 171753Z 03009KT 10SM FEW030 21/14 A3019 RMK AO2 SLP225 T02060139 10206 20156 58007
KSATKSAT 171751Z VRB05KT 10SM CLR 21/06 A3028 RMK AO2 SLP240 T02110061 10217 20089 58013 $